Steep Rock, Canada
Current Conditions -  °F | °C
As of 3:00 AM on Tuesday 21 Oct 2014 (Local Time) from CYDN Reporting Station
Clear Clear  
Wind Chill: 37°   Ceiling: Unl
Heat Index: 37°   Visibility: 9mi
Dew Point: 36°   Wind: 2mph
Humidity: 93%   Direction: NA
Pressure: 29.84"   Gusts: NA
Location:  51.43°N, 98.8°W
Report Text: CYDN 210800Z AUTO VRB02KT 9SM CLR 03/02 A2984 RMK SLP115
Loading
Personal Weather Stations






























Interactive Weather Map
Tropical Storm Tracking
New forecast layout! Learn more

10-Day Weather Forecast

Advertisements
Track Severe Weather on mobile